Time;durP1;ratioP1;P1;durP2;ratioP2;P2;SDS_P1;SDS_P2;PMS_P1;PMS_P2;Temp;Humidity;BMP_temperature;BMP_pressure;BME280_temperature;BME280_humidity;BME280_pressure;Samples;Min_cycle;Max_cycle;Signal;HPM_P1;HPM_P2
2023/12/03 00:00:07;;;;;;;63.20;22.38;;;-0.70;99.90;;;;;;4977539;28;87564;-77
2023/12/03 00:02:33;;;;;;;62.97;21.52;;;-0.60;99.90;;;;;;4978506;28;90918;-77
2023/12/03 00:04:59;;;;;;;68.05;21.77;;;-0.60;99.90;;;;;;4978171;28;91619;-77
2023/12/03 00:07:25;;;;;;;69.22;22.38;;;-0.50;99.90;;;;;;4978127;28;91675;-77
2023/12/03 00:09:51;;;;;;;69.45;22.10;;;-0.50;99.90;;;;;;4972432;28;87783;-77
2023/12/03 00:12:17;;;;;;;68.57;24.17;;;-0.40;99.90;;;;;;4961554;28;87496;-77
2023/12/03 00:14:43;;;;;;;70.32;22.90;;;-0.30;99.90;;;;;;4976939;28;89181;-77
2023/12/03 00:17:08;;;;;;;69.20;22.95;;;-0.30;99.90;;;;;;4977158;28;92691;-77
2023/12/03 00:19:34;;;;;;;68.05;23.05;;;-0.20;99.90;;;;;;4976463;28;87497;-77
2023/12/03 00:22:00;;;;;;;68.30;23.08;;;-0.20;99.90;;;;;;4976591;28;89874;-77
2023/12/03 00:24:26;;;;;;;70.93;24.45;;;-0.10;99.90;;;;;;4964895;28;91797;-77
2023/12/03 00:26:51;;;;;;;66.88;24.30;;;0.00;99.90;;;;;;4965744;28;90990;-77
2023/12/03 00:29:17;;;;;;;65.75;23.02;;;0.10;99.90;;;;;;4976892;28;87997;-77
2023/12/03 00:32:05;;;;;;;67.85;24.17;;;0.10;99.90;;;;;;4975823;28;90856;-77
2023/12/03 00:34:46;;;;;;;72.63;23.23;;;0.10;99.90;;;;;;4956655;28;92036;-77
2023/12/03 00:37:32;;;;;;;67.03;22.33;;;0.20;99.90;;;;;;4948479;28;90143;-77
2023/12/03 00:40:15;;;;;;;64.82;21.60;;;0.20;99.90;;;;;;4948349;28;88424;-77
2023/12/03 00:43:13;;;;;;;66.95;21.42;;;0.20;99.90;;;;;;5006029;27;86594;-75
2023/12/03 00:45:38;;;;;;;60.78;23.02;;;0.20;99.90;;;;;;4981281;28;86761;-77
2023/12/03 00:48:04;;;;;;;59.25;21.52;;;0.20;99.90;;;;;;4989189;28;86213;-78
2023/12/03 00:50:30;;;;;;;75.45;23.58;;;0.20;99.90;;;;;;4981083;28;88601;-74
2023/12/03 00:52:56;;;;;;;67.97;22.95;;;0.20;99.90;;;;;;4972825;28;89615;-74
2023/12/03 00:55:21;;;;;;;67.13;22.67;;;0.10;99.90;;;;;;4980549;28;86278;-74
2023/12/03 00:57:47;;;;;;;62.78;20.50;;;0.10;99.90;;;;;;4982752;28;86386;-81
2023/12/03 01:00:13;;;;;;;61.85;20.98;;;0.10;99.90;;;;;;4980295;28;90767;-76
2023/12/03 01:02:39;;;;;;;55.55;21.80;;;0.10;99.90;;;;;;4982640;28;86326;-76
2023/12/03 01:05:04;;;;;;;55.03;21.08;;;0.10;99.90;;;;;;4981048;28;86739;-78
2023/12/03 01:07:30;;;;;;;59.58;21.80;;;0.00;99.90;;;;;;4981879;28;85830;-76
2023/12/03 01:09:56;;;;;;;60.95;21.98;;;0.00;99.90;;;;;;4979615;28;89305;-74
2023/12/03 01:12:21;;;;;;;65.65;22.17;;;0.00;99.90;;;;;;4981149;28;87085;-75
2023/12/03 01:14:47;;;;;;;56.33;20.15;;;0.00;99.90;;;;;;4983010;28;86286;-78
2023/12/03 01:17:13;;;;;;;61.42;20.92;;;0.00;99.90;;;;;;4981445;28;86370;-77
2023/12/03 01:19:38;;;;;;;58.03;19.90;;;-0.10;99.90;;;;;;4981007;28;89597;-75
2023/12/03 01:22:04;;;;;;;61.80;21.80;;;-0.10;99.90;;;;;;4980364;28;89848;-75
2023/12/03 01:24:30;;;;;;;62.65;20.55;;;-0.10;99.90;;;;;;4981158;28;86506;-75
2023/12/03 01:26:56;;;;;;;59.00;20.35;;;-0.10;99.90;;;;;;4984019;28;86366;-76
2023/12/03 01:29:21;;;;;;;56.65;19.42;;;-0.20;99.90;;;;;;4983049;28;87540;-76
2023/12/03 01:31:47;;;;;;;53.25;20.02;;;-0.20;99.90;;;;;;4983769;28;89862;-79
2023/12/03 01:34:12;;;;;;;55.97;19.77;;;-0.20;99.90;;;;;;4982562;28;86637;-75
2023/12/03 01:36:38;;;;;;;52.03;19.10;;;-0.20;99.90;;;;;;4983594;28;86260;-78
2023/12/03 01:39:05;;;;;;;59.70;21.33;;;-0.20;99.90;;;;;;4984133;28;87314;-75
2023/12/03 01:41:31;;;;;;;54.92;19.95;;;-0.30;99.90;;;;;;4985807;28;86184;-74
2023/12/03 01:43:57;;;;;;;67.35;21.45;;;-0.30;99.90;;;;;;4984494;28;86258;-78
2023/12/03 01:46:23;;;;;;;56.65;19.13;;;-0.30;99.90;;;;;;4983449;28;86643;-77
2023/12/03 01:48:49;;;;;;;55.70;20.30;;;-0.30;99.90;;;;;;4981920;28;86801;-77
2023/12/03 01:51:15;;;;;;;57.72;20.30;;;-0.30;99.90;;;;;;4982455;28;86443;-81
2023/12/03 01:53:42;;;;;;;52.72;19.58;;;-0.30;99.90;;;;;;4976325;28;86630;-79
2023/12/03 01:56:09;;;;;;;54.88;19.60;;;-0.30;99.90;;;;;;4968425;28;86839;-78
2023/12/03 01:58:35;;;;;;;51.85;19.30;;;-0.30;99.90;;;;;;4966898;28;90914;-78
2023/12/03 02:01:02;;;;;;;55.13;20.02;;;-0.30;99.90;;;;;;4969069;28;86372;-76
2023/12/03 02:03:28;;;;;;;53.10;19.70;;;-0.30;99.90;;;;;;4970697;28;85995;-76
2023/12/03 02:06:04;;;;;;;50.28;17.92;;;-0.30;99.90;;;;;;4968786;28;87025;-75
2023/12/03 02:08:30;;;;;;;53.08;17.90;;;-0.30;99.90;;;;;;4969192;28;91712;-76
2023/12/03 02:10:56;;;;;;;56.95;20.05;;;-0.30;99.90;;;;;;4968911;28;86313;-78
2023/12/03 02:13:23;;;;;;;55.05;19.50;;;-0.30;99.90;;;;;;4973697;28;86372;-77
2023/12/03 02:15:48;;;;;;;55.30;18.58;;;-0.40;99.90;;;;;;4970309;28;86056;-77
2023/12/03 02:18:16;;;;;;;47.30;18.15;;;-0.40;99.90;;;;;;4972580;28;91020;-79
2023/12/03 02:20:42;;;;;;;53.92;18.65;;;-0.40;99.90;;;;;;4966574;28;91339;-76
2023/12/03 02:23:08;;;;;;;49.92;18.70;;;-0.50;99.90;;;;;;4968543;28;86807;-77
2023/12/03 02:25:33;;;;;;;51.58;18.25;;;-0.50;99.90;;;;;;4969095;28;85889;-76
2023/12/03 02:27:59;;;;;;;50.05;16.90;;;-0.50;99.90;;;;;;4966252;28;92261;-80
2023/12/03 02:30:25;;;;;;;55.45;18.77;;;-0.60;99.90;;;;;;4956733;28;90053;-78
2023/12/03 02:32:50;;;;;;;52.38;18.50;;;-0.60;99.90;;;;;;4967934;28;86578;-74
2023/12/03 02:35:16;;;;;;;53.95;18.25;;;-0.60;99.90;;;;;;4967520;28;85837;-76
2023/12/03 02:37:42;;;;;;;49.97;18.23;;;-0.60;99.90;;;;;;4968949;28;87088;-74
2023/12/03 02:40:08;;;;;;;47.00;18.42;;;-0.60;99.90;;;;;;4974520;28;88537;-74
2023/12/03 02:42:34;;;;;;;48.35;17.15;;;-0.60;99.90;;;;;;4968366;28;86781;-77
2023/12/03 02:44:59;;;;;;;56.92;17.55;;;-0.60;99.90;;;;;;4969237;28;86863;-75
2023/12/03 02:47:25;;;;;;;50.53;16.73;;;-0.60;99.90;;;;;;4974589;28;90575;-76
2023/12/03 02:49:51;;;;;;;48.88;17.75;;;-0.60;99.90;;;;;;4968122;28;89132;-75
2023/12/03 02:52:16;;;;;;;41.83;15.75;;;-0.60;99.90;;;;;;4968538;28;86796;-79
2023/12/03 02:54:42;;;;;;;42.78;17.45;;;-0.60;99.90;;;;;;4966407;28;86945;-77
2023/12/03 02:57:08;;;;;;;45.88;16.35;;;-0.70;99.90;;;;;;4969233;28;87453;-81
2023/12/03 02:59:33;;;;;;;52.50;16.77;;;-0.70;99.90;;;;;;4968681;28;90054;-77
2023/12/03 03:01:59;;;;;;;51.33;18.85;;;-0.70;99.90;;;;;;4968981;28;86389;-76
2023/12/03 03:04:25;;;;;;;49.88;17.02;;;-0.70;99.90;;;;;;4956203;28;86232;-74
2023/12/03 03:06:50;;;;;;;46.08;17.10;;;-0.80;99.90;;;;;;4967550;28;90087;-78
2023/12/03 03:09:16;;;;;;;52.35;16.70;;;-0.80;99.90;;;;;;4969162;28;86884;-77
2023/12/03 03:11:42;;;;;;;44.35;16.02;;;-0.80;99.90;;;;;;4969843;28;86191;-80
2023/12/03 03:14:07;;;;;;;42.40;16.67;;;-0.80;99.90;;;;;;4968273;28;86429;-73
2023/12/03 03:16:34;;;;;;;48.10;17.50;;;-0.80;99.90;;;;;;4969390;28;86626;-75
2023/12/03 03:19:00;;;;;;;48.63;17.50;;;-0.80;99.90;;;;;;4975432;28;89927;-75
2023/12/03 03:21:26;;;;;;;49.55;17.27;;;-0.90;99.90;;;;;;4969767;28;86070;-78
2023/12/03 03:23:52;;;;;;;42.95;15.60;;;-0.90;99.90;;;;;;4968563;28;86477;-79
2023/12/03 03:26:17;;;;;;;49.22;17.27;;;-0.90;99.90;;;;;;4968239;28;87170;-75
2023/12/03 03:28:43;;;;;;;48.83;15.75;;;-0.90;99.90;;;;;;4969957;28;86948;-76
2023/12/03 03:31:09;;;;;;;46.53;16.80;;;-0.90;99.90;;;;;;4968869;28;86337;-77
2023/12/03 03:33:34;;;;;;;46.83;17.27;;;-0.90;99.90;;;;;;4966445;28;86572;-80
2023/12/03 03:36:00;;;;;;;50.05;17.00;;;-0.90;99.90;;;;;;4968651;28;87223;-76
2023/12/03 03:38:25;;;;;;;51.45;16.65;;;-0.90;99.90;;;;;;4957158;28;88840;-76
2023/12/03 03:40:51;;;;;;;49.22;15.93;;;-1.00;99.90;;;;;;4968281;28;86534;-75
2023/12/03 03:43:17;;;;;;;41.88;15.35;;;-1.00;99.90;;;;;;4968138;28;86436;-76
2023/12/03 03:45:43;;;;;;;42.70;15.68;;;-1.00;99.90;;;;;;4958218;28;90726;-76
2023/12/03 03:48:08;;;;;;;43.92;15.68;;;-1.00;99.90;;;;;;4968453;28;86928;-76
2023/12/03 03:50:34;;;;;;;46.92;15.18;;;-1.00;99.90;;;;;;4960333;28;85833;-79
2023/12/03 03:53:00;;;;;;;45.47;16.08;;;-1.00;99.90;;;;;;4968026;28;86370;-81
2023/12/03 03:55:26;;;;;;;45.88;17.02;;;-1.00;99.90;;;;;;4968930;28;87699;-74
2023/12/03 03:57:51;;;;;;;47.88;16.33;;;-1.10;99.90;;;;;;4968683;28;86543;-79
2023/12/03 04:00:18;;;;;;;50.80;15.90;;;-1.10;99.90;;;;;;4968398;28;86193;-80
2023/12/03 04:02:43;;;;;;;47.30;16.30;;;-1.10;99.90;;;;;;4969384;28;87017;-76
2023/12/03 04:05:09;;;;;;;52.42;16.83;;;-1.10;99.90;;;;;;4968725;28;86960;-79
2023/12/03 04:07:35;;;;;;;46.05;16.77;;;-1.10;99.90;;;;;;4968662;28;87022;-81
2023/12/03 04:10:00;;;;;;;45.78;16.00;;;-1.20;99.90;;;;;;4968587;28;86604;-81
2023/12/03 04:12:26;;;;;;;44.10;17.52;;;-1.20;99.90;;;;;;4968672;28;86548;-79
2023/12/03 04:14:52;;;;;;;51.83;17.02;;;-1.20;99.90;;;;;;4970050;28;86583;-77
2023/12/03 04:17:17;;;;;;;43.22;16.40;;;-1.20;99.90;;;;;;4970429;28;86512;-77
2023/12/03 04:19:43;;;;;;;47.45;15.70;;;-1.20;99.90;;;;;;4969729;28;86199;-80
2023/12/03 04:22:09;;;;;;;46.47;15.80;;;-1.20;99.90;;;;;;4967672;28;87465;-81
2023/12/03 04:24:34;;;;;;;50.20;16.15;;;-1.20;99.90;;;;;;4969125;28;88742;-76
2023/12/03 04:27:00;;;;;;;46.35;16.33;;;-1.30;99.90;;;;;;4963414;28;88640;-77
2023/12/03 04:29:26;;;;;;;44.80;15.77;;;-1.30;99.90;;;;;;4969954;28;86922;-83
2023/12/03 04:31:51;;;;;;;43.95;16.17;;;-1.30;99.90;;;;;;4968425;28;86300;-75
2023/12/03 04:34:17;;;;;;;41.25;16.13;;;-1.30;99.90;;;;;;4969189;28;89943;-77
2023/12/03 04:36:43;;;;;;;42.90;15.35;;;-1.30;99.90;;;;;;4959235;28;87585;-78
2023/12/03 04:39:09;;;;;;;50.42;16.40;;;-1.30;99.90;;;;;;4971265;28;86295;-79
2023/12/03 04:41:35;;;;;;;44.22;15.95;;;-1.40;99.90;;;;;;4972700;28;86200;-77
2023/12/03 04:44:01;;;;;;;52.05;17.20;;;-1.40;99.90;;;;;;4965514;28;91779;-77
2023/12/03 04:46:30;;;;;;;48.03;17.02;;;-1.40;99.90;;;;;;4962575;28;89817;-79
2023/12/03 04:48:55;;;;;;;50.22;16.70;;;-1.50;99.90;;;;;;4969044;28;87048;-78
2023/12/03 04:51:21;;;;;;;50.03;17.38;;;-1.50;99.90;;;;;;4967786;28;86779;-84
2023/12/03 04:53:47;;;;;;;46.67;17.65;;;-1.50;99.90;;;;;;4968402;28;88891;-83
2023/12/03 04:56:12;;;;;;;48.33;16.80;;;-1.50;99.90;;;;;;4962256;28;88683;-83
2023/12/03 04:58:38;;;;;;;50.10;17.63;;;-1.50;99.90;;;;;;4970445;28;85983;-85
2023/12/03 05:01:04;;;;;;;40.42;15.05;;;-1.50;99.90;;;;;;4969216;28;86461;-80
2023/12/03 05:03:30;;;;;;;49.38;17.35;;;-1.50;99.90;;;;;;4969416;28;88592;-82
2023/12/03 05:05:55;;;;;;;51.90;19.08;;;-1.50;99.90;;;;;;4972619;28;87003;-80
2023/12/03 05:08:21;;;;;;;50.35;18.77;;;-1.50;99.90;;;;;;4971204;28;86788;-79
2023/12/03 05:10:46;;;;;;;58.58;18.48;;;-1.50;99.90;;;;;;4971036;28;86487;-84
2023/12/03 05:13:15;;;;;;;51.30;17.20;;;-1.50;99.90;;;;;;4970430;28;86937;-81
2023/12/03 05:15:41;;;;;;;60.88;19.63;;;-1.50;99.90;;;;;;4968865;28;88559;-78
2023/12/03 05:18:06;;;;;;;63.60;19.83;;;-1.50;99.90;;;;;;4971585;28;86224;-79
2023/12/03 05:20:32;;;;;;;51.63;17.50;;;-1.50;99.90;;;;;;4962327;28;86966;-82
2023/12/03 05:22:58;;;;;;;51.55;18.40;;;-1.50;99.90;;;;;;4971042;28;86062;-88
2023/12/03 05:25:23;;;;;;;56.28;19.77;;;-1.40;99.90;;;;;;4971236;28;86560;-84
2023/12/03 05:27:49;;;;;;;49.25;17.42;;;-1.50;99.90;;;;;;4971143;28;85788;-81
2023/12/03 05:30:15;;;;;;;53.63;18.95;;;-1.40;99.90;;;;;;4973728;28;86668;-85
2023/12/03 05:32:42;;;;;;;52.97;19.30;;;-1.40;99.90;;;;;;4974312;28;87783;-83
2023/12/03 05:35:09;;;;;;;56.55;18.88;;;-1.50;99.90;;;;;;4973210;28;90274;-82
2023/12/03 05:37:34;;;;;;;55.13;19.25;;;-1.50;99.90;;;;;;4973925;28;85816;-85
2023/12/03 05:40:00;;;;;;;52.97;18.98;;;-1.50;99.90;;;;;;4972619;28;86483;-80
2023/12/03 05:42:26;;;;;;;50.53;18.55;;;-1.40;99.90;;;;;;4974111;28;86924;-85
2023/12/03 05:44:51;;;;;;;51.45;17.50;;;-1.40;99.90;;;;;;4975719;28;86935;-76
2023/12/03 05:47:17;;;;;;;58.30;18.80;;;-1.40;99.90;;;;;;4972178;28;86731;-83
2023/12/03 05:49:42;;;;;;;60.70;19.13;;;-1.40;99.90;;;;;;4973770;28;86362;-81
2023/12/03 05:52:08;;;;;;;58.60;20.90;;;-1.40;99.90;;;;;;4972718;28;89304;-82
2023/12/03 05:54:34;;;;;;;47.45;18.40;;;-1.40;99.90;;;;;;4963604;28;88274;-81
2023/12/03 05:56:59;;;;;;;52.40;20.10;;;-1.40;99.90;;;;;;4971954;28;86841;-76
2023/12/03 05:59:26;;;;;;;55.22;18.67;;;-1.40;99.90;;;;;;4968724;28;86014;-78
2023/12/03 06:01:52;;;;;;;57.50;19.95;;;-1.30;99.90;;;;;;4967957;28;86096;-78
2023/12/03 06:04:23;;;;;;;51.83;17.88;;;-1.30;99.90;;;;;;4965706;28;87396;-82
2023/12/03 06:06:49;;;;;;;55.35;19.67;;;-1.30;99.90;;;;;;4966728;28;87776;-76
2023/12/03 06:09:14;;;;;;;55.90;20.35;;;-1.30;99.90;;;;;;4972999;28;85920;-76
2023/12/03 06:11:40;;;;;;;49.40;18.67;;;-1.30;99.90;;;;;;4973429;28;86329;-77
2023/12/03 06:14:06;;;;;;;52.65;18.92;;;-1.20;99.90;;;;;;4959278;28;86494;-79
2023/12/03 06:16:32;;;;;;;54.10;19.50;;;-1.20;99.90;;;;;;4977450;28;86733;-78
2023/12/03 06:18:58;;;;;;;56.72;18.85;;;-1.20;99.90;;;;;;4972996;28;85874;-82
2023/12/03 06:21:24;;;;;;;59.20;20.15;;;-1.20;99.90;;;;;;4972215;28;86942;-77
2023/12/03 06:23:49;;;;;;;53.95;18.88;;;-1.20;99.90;;;;;;4972365;28;86295;-77
2023/12/03 06:26:15;;;;;;;54.25;17.75;;;-1.20;99.90;;;;;;4972262;28;86063;-78
2023/12/03 06:28:41;;;;;;;52.55;19.65;;;-1.20;99.90;;;;;;4972874;28;85946;-80
2023/12/03 06:31:07;;;;;;;45.08;17.27;;;-1.20;99.90;;;;;;4973139;28;86951;-76
2023/12/03 06:33:33;;;;;;;47.28;18.70;;;-1.20;99.90;;;;;;4971654;28;90139;-81
2023/12/03 06:35:59;;;;;;;48.90;16.63;;;-1.20;99.90;;;;;;4971942;28;86186;-77
2023/12/03 06:38:24;;;;;;;44.95;16.60;;;-1.20;99.90;;;;;;4971037;28;86457;-77
2023/12/03 06:40:50;;;;;;;51.35;17.80;;;-1.20;99.90;;;;;;4972812;28;87686;-79
2023/12/03 06:43:16;;;;;;;50.28;18.35;;;-1.20;99.90;;;;;;4970576;28;88493;-78
2023/12/03 06:45:42;;;;;;;49.47;17.17;;;-1.20;99.90;;;;;;4970221;28;86094;-82
2023/12/03 06:48:08;;;;;;;49.25;18.58;;;-1.20;99.90;;;;;;4972692;28;86450;-80
2023/12/03 06:50:34;;;;;;;45.45;16.98;;;-1.20;99.90;;;;;;4973761;28;86637;-77
2023/12/03 06:53:00;;;;;;;53.13;17.17;;;-1.20;99.90;;;;;;4972162;28;85861;-78
2023/12/03 06:55:26;;;;;;;47.75;17.60;;;-1.20;99.90;;;;;;4971878;28;86332;-78
2023/12/03 06:57:52;;;;;;;54.13;19.58;;;-1.20;99.90;;;;;;4973032;28;86276;-80
2023/12/03 07:00:19;;;;;;;52.35;19.20;;;-1.20;99.90;;;;;;4971715;28;87320;-84
2023/12/03 07:02:44;;;;;;;56.40;19.50;;;-1.20;99.90;;;;;;4972688;28;89074;-83
2023/12/03 07:05:10;;;;;;;47.33;17.10;;;-1.20;99.90;;;;;;4974692;28;86214;-77
2023/12/03 07:07:36;;;;;;;49.58;17.65;;;-1.20;99.90;;;;;;4973198;28;86344;-87
2023/12/03 07:10:02;;;;;;;50.20;17.67;;;-1.20;99.90;;;;;;4972777;28;87228;-79
2023/12/03 07:12:29;;;;;;;46.17;19.13;;;-1.30;99.90;;;;;;4969637;28;88005;-84
2023/12/03 07:14:55;;;;;;;52.72;18.55;;;-1.30;99.90;;;;;;4973973;28;85896;-81
2023/12/03 07:17:20;;;;;;;52.92;18.70;;;-1.30;99.90;;;;;;4977656;28;87044;-81
2023/12/03 07:19:46;;;;;;;52.90;18.83;;;-1.30;99.90;;;;;;4970755;28;90453;-82
2023/12/03 07:22:12;;;;;;;48.40;19.08;;;-1.20;99.90;;;;;;4971939;28;89328;-77
2023/12/03 07:24:38;;;;;;;48.22;18.83;;;-1.20;99.90;;;;;;4972239;28;85889;-78
2023/12/03 07:27:04;;;;;;;46.85;18.52;;;-1.20;99.90;;;;;;4961715;28;86338;-81
2023/12/03 07:29:30;;;;;;;47.05;17.50;;;-1.20;99.90;;;;;;4975135;28;86672;-77
2023/12/03 07:31:56;;;;;;;57.67;19.08;;;-1.20;99.90;;;;;;4971552;28;91029;-78
2023/12/03 07:34:21;;;;;;;48.65;18.75;;;-1.20;99.90;;;;;;4967935;28;86435;-79
2023/12/03 07:36:47;;;;;;;53.85;19.55;;;-1.20;99.90;;;;;;4967490;28;85961;-79
2023/12/03 07:39:13;;;;;;;54.45;20.23;;;-1.10;99.90;;;;;;4969846;28;88790;-79
2023/12/03 07:41:38;;;;;;;52.28;20.10;;;-1.10;99.90;;;;;;4972696;28;87850;-77
2023/12/03 07:44:04;;;;;;;55.30;20.15;;;-1.10;99.90;;;;;;4971696;28;86295;-79
2023/12/03 07:46:32;;;;;;;49.40;17.35;;;-1.00;99.90;;;;;;4972348;28;85996;-77
2023/12/03 07:48:58;;;;;;;53.83;18.95;;;-1.00;99.90;;;;;;4972849;28;86853;-77
2023/12/03 07:51:24;;;;;;;55.00;19.25;;;-1.00;99.90;;;;;;4970560;28;86467;-77
2023/12/03 07:53:50;;;;;;;50.78;18.95;;;-0.90;99.90;;;;;;4959169;28;85854;-77
2023/12/03 07:56:16;;;;;;;52.78;19.02;;;-0.90;99.90;;;;;;4969828;28;85830;-77
2023/12/03 07:58:41;;;;;;;51.83;17.85;;;-0.80;99.90;;;;;;4971964;28;86735;-80
2023/12/03 08:01:07;;;;;;;47.47;18.10;;;-0.70;99.90;;;;;;4973714;28;86931;-85
2023/12/03 08:03:33;;;;;;;52.25;18.63;;;-0.70;99.90;;;;;;4977160;28;85807;-80
2023/12/03 08:05:59;;;;;;;53.20;17.55;;;-0.60;99.90;;;;;;4978030;28;85804;-82
2023/12/03 08:08:25;;;;;;;51.60;18.85;;;-0.50;99.90;;;;;;4976846;28;87462;-78
2023/12/03 08:10:51;;;;;;;48.30;19.25;;;-0.30;99.90;;;;;;4976246;28;85731;-78
2023/12/03 08:13:17;;;;;;;47.95;19.90;;;-0.20;99.90;;;;;;4964890;28;85970;-80
2023/12/03 08:15:42;;;;;;;45.45;17.13;;;-0.10;99.90;;;;;;4972777;28;89009;-76
2023/12/03 08:18:17;;;;;;;46.85;18.77;;;0.00;99.90;;;;;;4973546;28;90440;-80
2023/12/03 08:20:42;;;;;;;47.03;16.88;;;0.10;99.90;;;;;;4981061;28;89134;-75
2023/12/03 08:23:08;;;;;;;49.53;19.08;;;0.10;99.90;;;;;;4973587;28;86871;-77
2023/12/03 08:25:34;;;;;;;44.92;18.20;;;0.10;99.90;;;;;;4973079;28;87431;-77
2023/12/03 08:28:02;;;;;;;47.15;18.63;;;0.20;99.90;;;;;;4973772;28;87621;-76
2023/12/03 08:30:28;;;;;;;45.30;17.05;;;0.20;99.90;;;;;;4975554;28;86120;-78
2023/12/03 08:32:56;;;;;;;46.63;16.52;;;0.20;99.90;;;;;;4976528;28;85784;-76
2023/12/03 08:35:22;;;;;;;46.95;16.80;;;0.20;99.90;;;;;;4974779;28;87280;-75
2023/12/03 08:37:50;;;;;;;44.72;17.25;;;0.20;99.90;;;;;;4977159;28;86449;-78
2023/12/03 08:40:16;;;;;;;44.50;17.55;;;0.30;99.90;;;;;;4975195;28;89759;-77
2023/12/03 08:42:44;;;;;;;42.58;16.13;;;0.30;99.90;;;;;;4973388;28;87384;-75
2023/12/03 08:45:09;;;;;;;42.00;17.70;;;0.30;99.90;;;;;;4976221;28;85853;-75
2023/12/03 08:47:35;;;;;;;47.53;16.77;;;0.30;99.90;;;;;;4977521;28;91416;-76
2023/12/03 08:50:08;;;;;;;41.40;15.57;;;0.30;99.90;;;;;;4978723;28;86485;-75
2023/12/03 08:52:34;;;;;;;43.35;17.08;;;0.40;99.90;;;;;;4977600;28;85755;-75
2023/12/03 08:55:02;;;;;;;44.03;16.98;;;0.40;99.90;;;;;;4978766;28;85693;-75
2023/12/03 08:57:28;;;;;;;42.50;16.02;;;0.40;99.90;;;;;;4977488;28;88527;-75
2023/12/03 08:59:54;;;;;;;45.25;16.58;;;0.40;99.90;;;;;;4979481;28;86590;-75
2023/12/03 09:02:26;;;;;;;40.33;16.27;;;0.50;99.90;;;;;;4979179;28;85981;-76
2023/12/03 09:04:51;;;;;;;43.65;16.73;;;0.50;99.90;;;;;;4977652;28;87320;-75
2023/12/03 09:07:24;;;;;;;44.20;16.90;;;0.50;99.90;;;;;;4973149;28;87401;-75
2023/12/03 09:09:49;;;;;;;41.87;15.73;;;0.60;99.90;;;;;;4969611;28;87896;-78
2023/12/03 09:12:17;;;;;;;45.63;18.05;;;0.60;99.90;;;;;;4979964;28;85843;-75
2023/12/03 09:14:43;;;;;;;44.55;16.80;;;0.60;99.90;;;;;;4983667;28;85731;-76
2023/12/03 09:17:11;;;;;;;42.90;16.58;;;0.70;99.90;;;;;;4984226;28;87122;-75
2023/12/03 09:19:36;;;;;;;41.63;15.93;;;0.70;99.90;;;;;;4983214;28;90129;-75
2023/12/03 09:22:02;;;;;;;44.28;16.92;;;0.70;99.90;;;;;;4976588;28;86969;-75
2023/12/03 09:24:28;;;;;;;41.22;17.50;;;0.80;99.90;;;;;;4984929;28;85614;-75
2023/12/03 09:26:56;;;;;;;37.60;16.77;;;0.80;99.90;;;;;;4984316;28;90681;-75
2023/12/03 09:29:21;;;;;;;45.88;16.80;;;0.90;99.90;;;;;;4984009;28;90209;-74
2023/12/03 09:31:48;;;;;;;41.10;17.42;;;0.90;99.90;;;;;;4985789;28;85515;-74
2023/12/03 09:34:14;;;;;;;42.72;16.30;;;1.00;99.90;;;;;;4984073;28;85521;-75
2023/12/03 09:36:43;;;;;;;41.05;16.42;;;1.00;99.90;;;;;;4985117;28;86948;-74
2023/12/03 09:39:08;;;;;;;43.92;16.23;;;1.10;99.90;;;;;;4966113;28;85512;-75
2023/12/03 09:41:44;;;;;;;35.80;15.93;;;1.10;99.90;;;;;;4965600;28;85735;-76
2023/12/03 09:44:37;;;;;;;38.90;15.63;;;1.20;99.90;;;;;;4976472;28;86030;-75
2023/12/03 09:47:03;;;;;;;34.20;15.23;;;1.20;99.90;;;;;;4984904;28;88082;-76
2023/12/03 09:49:29;;;;;;;40.42;15.20;;;1.30;99.90;;;;;;4986847;28;86421;-75
2023/12/03 09:52:00;;;;;;;38.20;16.45;;;1.30;99.90;;;;;;5003385;28;87589;-77
2023/12/03 09:54:35;;;;;;;36.85;15.20;;;1.30;99.90;;;;;;4983072;28;87183;-76
2023/12/03 09:57:24;;;;;;;38.13;15.45;;;1.40;99.90;;;;;;4986663;28;87555;-76
2023/12/03 10:00:19;;;;;;;36.65;15.40;;;1.50;99.90;;;;;;4965830;28;90048;-76
2023/12/03 10:06:10;;;;;;;38.78;15.02;;;1.60;99.90;;;;;;4932188;28;87067;-77
2023/12/03 10:27:17;;;;;;;38.00;16.25;;;1.90;99.90;;;;;;5001320;28;85947;-75
2023/12/03 10:29:47;;;;;;;41.08;16.58;;;2.00;99.90;;;;;;4990551;28;86915;-77
2023/12/03 10:32:13;;;;;;;38.72;15.60;;;2.00;99.90;;;;;;4975644;28;88680;-75
2023/12/03 10:34:54;;;;;;;40.63;16.00;;;2.00;99.90;;;;;;4972435;28;90026;-75
2023/12/03 10:37:19;;;;;;;37.15;14.70;;;2.10;99.90;;;;;;4988875;28;85545;-76
2023/12/03 10:40:15;;;;;;;41.80;16.60;;;2.10;99.90;;;;;;5004659;28;85549;-75
2023/12/03 10:42:40;;;;;;;38.28;15.95;;;2.20;99.90;;;;;;4968131;28;87504;-75
2023/12/03 10:48:30;;;;;;;37.45;14.77;;;2.40;99.90;;;;;;5010518;28;86006;-76
2023/12/03 10:51:50;;;;;;;36.03;16.52;;;2.50;99.90;;;;;;5004224;28;85602;-76
2023/12/03 10:54:16;;;;;;;40.03;16.58;;;2.60;99.90;;;;;;5003799;28;86955;-75
2023/12/03 10:56:52;;;;;;;39.40;16.65;;;2.60;99.90;;;;;;4995331;28;89969;-73
2023/12/03 11:00:21;;;;;;;41.15;16.42;;;2.70;99.90;;;;;;4988330;28;85347;-74
2023/12/03 11:03:32;;;;;;;38.35;15.48;;;2.70;99.90;;;;;;4999922;28;86006;-73
2023/12/03 11:13:01;;;;;;;37.17;15.55;;;2.80;99.90;;;;;;5002265;28;85649;-76
2023/12/03 11:16:14;;;;;;;34.00;16.23;;;2.90;99.90;;;;;;5016932;28;85950;-76
2023/12/03 11:19:06;;;;;;;37.83;15.43;;;2.90;99.90;;;;;;5000724;28;88696;-76
2023/12/03 11:21:46;;;;;;;38.95;16.55;;;2.90;99.90;;;;;;4991471;28;90448;-76
2023/12/03 12:03:00;;;;;;;35.53;15.38;;;3.40;99.90;;;;;;5010828;28;86114;-76
2023/12/03 12:05:26;;;;;;;32.90;14.27;;;3.40;99.90;;;;;;5010148;28;86749;-77
2023/12/03 12:08:03;;;;;;;36.20;15.25;;;3.30;99.90;;;;;;5011329;28;87357;-76
2023/12/03 12:10:33;;;;;;;37.78;16.50;;;3.30;99.90;;;;;;5016535;28;85812;-76
2023/12/03 12:13:00;;;;;;;36.08;14.98;;;3.40;99.90;;;;;;5020836;28;85975;-76
2023/12/03 12:16:10;;;;;;;42.75;16.42;;;3.40;99.90;;;;;;5019865;27;85864;-77
2023/12/03 12:18:36;;;;;;;32.53;15.40;;;3.40;99.90;;;;;;5014053;28;86797;-77
2023/12/03 12:21:11;;;;;;;33.55;15.35;;;3.40;99.90;;;;;;5022526;28;85887;-77
2023/12/03 12:23:37;;;;;;;38.78;15.70;;;3.50;99.90;;;;;;5000810;28;88806;-77
2023/12/03 12:26:16;;;;;;;36.08;15.18;;;3.50;99.90;;;;;;5020036;28;86909;-77
2023/12/03 12:28:41;;;;;;;36.33;15.52;;;3.50;99.90;;;;;;5021549;28;87403;-77
2023/12/03 12:31:08;;;;;;;35.83;15.15;;;3.50;99.90;;;;;;5021402;28;87057;-77
2023/12/03 12:33:50;;;;;;;34.70;15.60;;;3.50;99.90;;;;;;5021579;28;85633;-76
2023/12/03 12:36:18;;;;;;;35.75;15.60;;;3.50;99.90;;;;;;5021505;28;85823;-78
2023/12/03 12:38:44;;;;;;;38.25;15.65;;;3.40;99.90;;;;;;5021843;28;87476;-78
2023/12/03 12:44:44;;;;;;;34.33;15.07;;;3.40;99.90;;;;;;5020384;28;87069;-77
2023/12/03 12:51:50;;;;;;;38.88;15.13;;;3.30;99.90;;;;;;5015163;28;90265;-77
2023/12/03 12:54:15;;;;;;;36.78;14.63;;;3.20;99.90;;;;;;5012887;28;88117;-77
2023/12/03 13:00:10;;;;;;;35.55;14.70;;;3.30;99.90;;;;;;5019539;28;86155;-77
2023/12/03 13:02:39;;;;;;;37.75;15.98;;;3.20;99.90;;;;;;5021797;28;87709;-77
2023/12/03 13:28:37;;;;;;;32.92;13.57;;;3.20;99.90;;;;;;5030860;28;86418;-76
2023/12/03 13:31:03;;;;;;;36.35;14.45;;;3.20;99.90;;;;;;5021108;28;87858;-77
2023/12/03 13:33:29;;;;;;;35.35;13.93;;;3.20;99.90;;;;;;5019475;28;85783;-77
2023/12/03 13:39:18;;;;;;;29.45;13.02;;;3.20;99.90;;;;;;4968413;28;90394;-77
2023/12/03 13:41:44;;;;;;;31.70;13.00;;;3.20;99.90;;;;;;4978449;28;86258;-77
2023/12/03 13:44:19;;;;;;;33.63;14.68;;;3.10;99.90;;;;;;4956488;28;85761;-76
2023/12/03 13:46:45;;;;;;;32.03;13.88;;;3.10;99.90;;;;;;4980053;28;85529;-77
2023/12/03 13:49:56;;;;;;;29.17;13.10;;;3.00;99.90;;;;;;4980404;28;86943;-76
2023/12/03 13:52:22;;;;;;;33.15;13.35;;;2.90;99.90;;;;;;4962278;28;89711;-72
2023/12/03 13:54:48;;;;;;;34.60;13.35;;;2.90;99.90;;;;;;5004296;28;86824;-78
2023/12/03 13:57:16;;;;;;;31.85;12.95;;;2.90;99.90;;;;;;5019283;28;87059;-77
2023/12/03 13:59:42;;;;;;;28.77;13.15;;;2.80;99.90;;;;;;5022742;28;87088;-77
2023/12/03 14:02:11;;;;;;;35.10;13.75;;;2.80;99.90;;;;;;5020331;28;87355;-77
2023/12/03 14:04:37;;;;;;;34.58;14.05;;;2.70;99.90;;;;;;5018369;28;85738;-78
2023/12/03 14:07:09;;;;;;;37.58;14.98;;;2.60;99.90;;;;;;5021346;28;86000;-79
2023/12/03 14:09:35;;;;;;;36.22;14.40;;;2.60;99.90;;;;;;5020142;28;88816;-78
2023/12/03 14:12:05;;;;;;;33.70;13.70;;;2.50;99.90;;;;;;5022985;28;86743;-78
2023/12/03 14:14:31;;;;;;;36.67;14.50;;;2.40;99.90;;;;;;5004064;28;86928;-78
2023/12/03 14:17:24;;;;;;;35.92;14.45;;;2.40;99.90;;;;;;4999195;28;85808;-78
2023/12/03 14:19:49;;;;;;;38.83;14.90;;;2.30;99.90;;;;;;4997688;28;88771;-78
2023/12/03 14:22:40;;;;;;;39.70;14.38;;;2.30;99.90;;;;;;5028512;28;89338;-79
2023/12/03 14:25:06;;;;;;;34.28;14.40;;;2.30;99.90;;;;;;5027590;28;85607;-79